createdAt,value
2022-10-21T00:02:01.039Z,52.38
2022-10-21T00:07:04.053Z,52.20
2022-10-21T00:12:07.208Z,52.13
2022-10-21T00:17:12.549Z,53.10
2022-10-21T00:22:15.065Z,54.78
2022-10-21T00:27:19.182Z,54.72
2022-10-21T00:32:21.855Z,55.95
2022-10-21T00:37:24.733Z,55.20
2022-10-21T00:42:43.693Z,62.15
2022-10-21T00:48:01.146Z,61.13
2022-10-21T00:53:05.524Z,45.47
2022-10-21T01:03:10.902Z,48.58
2022-10-21T01:08:13.482Z,47.35
2022-10-21T01:13:18.723Z,48.88
2022-10-21T01:18:47.877Z,49.88
2022-10-21T01:23:58.100Z,52.05
2022-10-21T01:29:28.830Z,58.13
2022-10-21T01:34:45.091Z,57.33
2022-10-21T01:39:57.261Z,61.22
2022-10-21T01:45:09.157Z,63.90
2022-10-21T01:50:16.177Z,63.75
2022-10-21T01:55:21.159Z,62.00
2022-10-21T02:00:26.891Z,61.47
2022-10-21T02:05:32.829Z,63.80
2022-10-21T02:10:43.856Z,60.15
2022-10-21T02:15:46.595Z,61.67
2022-10-21T02:20:59.678Z,58.92
2022-10-21T02:26:02.460Z,62.65
2022-10-21T02:31:18.617Z,59.60
2022-10-21T02:36:48.109Z,61.35
2022-10-21T02:41:53.561Z,59.97
2022-10-21T02:46:56.145Z,59.53
2022-10-21T02:52:00.014Z,55.15
2022-10-21T02:57:02.632Z,56.57
2022-10-21T03:02:05.381Z,57.30
2022-10-21T03:07:08.058Z,57.40
2022-10-21T03:12:12.238Z,57.67
2022-10-21T03:17:14.761Z,55.70
2022-10-21T03:22:17.717Z,57.38
2022-10-21T03:27:20.417Z,54.92
2022-10-21T03:32:23.167Z,57.42
2022-10-21T03:37:25.743Z,54.10
2022-10-21T03:42:28.953Z,55.28
2022-10-21T03:47:33.216Z,55.63
2022-10-21T03:52:36.187Z,53.92
2022-10-21T03:57:39.227Z,54.75
2022-10-21T04:02:42.376Z,53.80
2022-10-21T04:07:49.253Z,52.45
2022-10-21T04:12:55.613Z,44.63
2022-10-21T04:17:58.192Z,36.38
2022-10-21T04:23:01.988Z,37.60
2022-10-21T04:28:04.750Z,40.75
2022-10-21T04:33:08.818Z,40.75
2022-10-21T04:38:11.283Z,44.03
2022-10-21T04:43:14.401Z,44.70
2022-10-21T04:48:17.545Z,45.92
2022-10-21T04:53:20.850Z,44.65
2022-10-21T04:58:24.661Z,40.47
2022-10-21T05:03:27.797Z,44.17
2022-10-21T05:08:30.371Z,44.60
2022-10-21T05:13:33.733Z,45.92
2022-10-21T05:18:36.255Z,45.22
2022-10-21T05:23:38.798Z,43.80
2022-10-21T05:28:41.553Z,43.70
2022-10-21T05:33:44.280Z,35.95
2022-10-21T05:38:46.902Z,22.48
2022-10-21T05:43:49.547Z,25.08
2022-10-21T05:48:52.097Z,24.50
2022-10-21T05:53:56.153Z,15.30
2022-10-21T05:58:59.328Z,15.27
2022-10-21T06:04:02.103Z,15.90
2022-10-21T06:09:05.211Z,19.33
2022-10-21T06:14:07.998Z,15.13
2022-10-21T06:19:10.958Z,19.38
2022-10-21T06:24:13.719Z,18.40
2022-10-21T06:29:16.434Z,20.08
2022-10-21T06:34:19.182Z,17.80
2022-10-21T06:39:22.186Z,21.33
2022-10-21T06:44:26.096Z,19.48
2022-10-21T06:49:47.215Z,20.15
2022-10-21T06:54:50.715Z,24.02
2022-10-21T06:59:53.245Z,23.02
2022-10-21T07:04:57.855Z,21.40
2022-10-21T07:10:01.900Z,23.65
2022-10-21T07:15:04.945Z,25.13
2022-10-21T07:20:07.932Z,28.65
2022-10-21T07:25:10.641Z,25.02
2022-10-21T07:30:13.044Z,28.42
2022-10-21T07:35:15.912Z,30.75
2022-10-21T07:40:18.510Z,34.67
2022-10-21T07:45:21.152Z,38.78
2022-10-21T07:50:23.782Z,40.15
2022-10-21T07:55:26.391Z,39.67
2022-10-21T08:00:30.180Z,42.53
2022-10-21T08:05:32.831Z,43.77
2022-10-21T08:10:40.349Z,44.58
2022-10-21T08:15:48.053Z,46.38
2022-10-21T08:20:50.617Z,44.33
2022-10-21T08:25:55.867Z,44.38
2022-10-21T08:31:17.300Z,47.00
2022-10-21T08:36:25.137Z,47.05
2022-10-21T08:41:30.724Z,46.30
2022-10-21T08:46:41.068Z,45.88
2022-10-21T08:51:52.205Z,47.28
2022-10-21T08:56:59.319Z,48.00
2022-10-21T09:02:23.977Z,46.75
2022-10-21T09:07:36.356Z,47.03
2022-10-21T09:12:49.037Z,45.80
2022-10-21T09:18:26.649Z,46.72
2022-10-21T09:23:45.881Z,50.03
2022-10-21T09:29:25.781Z,47.78
2022-10-21T09:34:55.964Z,49.40
2022-10-21T09:40:10.196Z,49.22
2022-10-21T09:45:22.095Z,48.45
2022-10-21T09:50:25.154Z,52.42
2022-10-21T09:55:30.021Z,51.78
2022-10-21T10:01:01.219Z,49.60
2022-10-21T10:06:05.571Z,42.33
2022-10-21T10:11:11.482Z,43.55
2022-10-21T10:16:14.410Z,44.45
2022-10-21T10:21:23.414Z,45.78
2022-10-21T10:26:44.808Z,32.15
2022-10-21T10:31:53.785Z,40.78
2022-10-21T10:37:26.322Z,38.47
2022-10-21T10:42:33.401Z,43.50
2022-10-21T10:47:46.703Z,42.33
2022-10-21T10:52:49.378Z,43.42
2022-10-21T10:57:59.245Z,39.50
2022-10-21T11:03:23.906Z,46.58
2022-10-21T11:08:34.213Z,44.67
2022-10-21T11:13:42.113Z,42.65
2022-10-21T11:18:50.711Z,40.45
2022-10-21T11:24:18.022Z,33.70
2022-10-21T11:29:33.785Z,37.17
2022-10-21T11:34:50.625Z,33.47
2022-10-21T11:40:05.563Z,32.42
2022-10-21T11:45:39.791Z,34.90
2022-10-21T11:50:47.536Z,29.80
2022-10-21T11:56:16.728Z,27.35
2022-10-21T12:01:51.029Z,25.58
2022-10-21T12:07:03.031Z,22.10
2022-10-21T12:12:30.726Z,18.80
2022-10-21T12:17:34.238Z,16.20
2022-10-21T12:22:37.445Z,16.57
2022-10-21T12:27:43.728Z,15.43
2022-10-21T12:32:52.590Z,12.93
2022-10-21T12:37:55.164Z,12.65
2022-10-21T12:43:00.704Z,11.40
2022-10-21T12:48:32.101Z,11.15
2022-10-21T12:53:41.925Z,9.80
2022-10-21T12:58:46.186Z,10.18
2022-10-21T13:03:52.532Z,10.30
2022-10-21T13:08:56.684Z,9.93
2022-10-21T13:14:17.593Z,9.70
2022-10-21T13:19:20.925Z,10.73
2022-10-21T13:24:34.808Z,11.00
2022-10-21T13:29:37.316Z,10.73
2022-10-21T13:34:42.569Z,10.77
2022-10-21T13:39:50.025Z,9.52
2022-10-21T13:44:57.895Z,10.23
2022-10-21T13:50:03.807Z,9.73
2022-10-21T13:55:07.042Z,9.48
2022-10-21T14:00:23.548Z,8.35
2022-10-21T14:05:39.069Z,7.03
2022-10-21T14:10:45.826Z,7.28
2022-10-21T14:15:49.185Z,6.75
2022-10-21T14:20:54.714Z,6.40
2022-10-21T14:26:07.733Z,6.95
2022-10-21T14:31:12.465Z,6.15
2022-10-21T14:36:20.930Z,5.40
2022-10-21T14:41:28.926Z,5.10
2022-10-21T14:46:31.584Z,5.57
2022-10-21T14:51:38.236Z,5.25
2022-10-21T14:56:43.271Z,4.68
2022-10-21T15:01:46.827Z,15.55
2022-10-21T15:07:02.703Z,6.30
2022-10-21T15:12:19.583Z,5.78
2022-10-21T15:17:23.186Z,5.07
2022-10-21T15:22:34.132Z,5.53
2022-10-21T15:27:43.352Z,4.78
2022-10-21T15:32:47.875Z,4.68
2022-10-21T15:37:51.661Z,4.50
2022-10-21T15:42:55.622Z,4.60
2022-10-21T15:47:58.126Z,4.85
2022-10-21T15:53:00.782Z,4.80
2022-10-21T15:58:03.732Z,4.38
2022-10-21T16:03:06.478Z,4.10
2022-10-21T16:08:12.240Z,4.32
2022-10-21T16:13:15.392Z,4.50
2022-10-21T16:18:17.925Z,3.88
2022-10-21T16:23:20.526Z,3.28
2022-10-21T16:28:25.437Z,3.65
2022-10-21T16:33:28.593Z,3.90
2022-10-21T16:38:31.350Z,4.05
2022-10-21T16:43:34.210Z,3.67
2022-10-21T16:48:36.944Z,4.15
2022-10-21T16:53:39.908Z,3.20
2022-10-21T16:59:01.050Z,3.67
2022-10-21T17:04:04.018Z,3.22
2022-10-21T17:09:06.707Z,3.67
2022-10-21T17:14:14.716Z,3.28
2022-10-21T17:19:17.300Z,3.08
2022-10-21T17:24:19.951Z,3.10
2022-10-21T17:29:23.936Z,2.67
2022-10-21T17:34:29.625Z,2.90
2022-10-21T17:39:32.307Z,3.08
2022-10-21T17:44:35.005Z,4.32
2022-10-21T17:49:39.139Z,4.57
2022-10-21T17:54:42.045Z,3.05
2022-10-21T17:59:45.334Z,3.42
2022-10-21T18:04:48.565Z,3.60
2022-10-21T18:09:51.079Z,3.35
2022-10-21T18:14:53.779Z,4.05
2022-10-21T18:19:56.754Z,4.10
2022-10-21T18:24:59.489Z,4.38
2022-10-21T18:30:05.069Z,4.00
2022-10-21T18:35:08.572Z,3.67
2022-10-21T18:40:11.664Z,3.45
2022-10-21T18:45:14.454Z,4.03
2022-10-21T18:50:17.400Z,3.75
2022-10-21T18:55:20.101Z,2.95
2022-10-21T19:00:22.789Z,4.80
2022-10-21T19:05:25.423Z,3.35
2022-10-21T19:10:28.151Z,3.40
2022-10-21T19:15:31.170Z,3.55
2022-10-21T19:20:33.878Z,14.70
2022-10-21T19:25:36.737Z,16.63
2022-10-21T19:30:39.452Z,24.83
2022-10-21T19:35:42.510Z,25.80
2022-10-21T19:40:45.393Z,37.45
2022-10-21T19:45:48.311Z,14.30
2022-10-21T19:50:53.572Z,11.00
2022-10-21T19:55:56.378Z,10.10
2022-10-21T20:01:10.847Z,11.60
2022-10-21T20:06:20.668Z,8.75
2022-10-21T20:11:23.914Z,10.95
2022-10-21T20:16:32.440Z,7.32
2022-10-21T20:21:36.541Z,5.82
2022-10-21T20:31:47.078Z,6.35
2022-10-21T20:36:50.549Z,5.30
2022-10-21T20:41:53.895Z,5.20
2022-10-21T20:46:56.670Z,6.10
2022-10-21T20:51:59.308Z,3.97
2022-10-21T20:57:02.163Z,4.38
2022-10-21T21:02:23.539Z,4.18
2022-10-21T21:07:26.295Z,5.65
2022-10-21T21:12:28.878Z,5.40
2022-10-21T21:17:31.853Z,6.05
2022-10-21T21:22:37.449Z,6.38
2022-10-21T21:27:40.782Z,5.90
2022-10-21T21:32:44.001Z,5.28
2022-10-21T21:37:47.007Z,6.45
2022-10-21T21:42:49.727Z,6.80
2022-10-21T21:47:52.526Z,5.80
2022-10-21T21:52:55.244Z,5.80
2022-10-21T21:57:57.913Z,5.82
2022-10-21T22:03:00.639Z,6.35
2022-10-21T22:08:03.484Z,6.72
2022-10-21T22:13:06.068Z,6.43
2022-10-21T22:18:09.631Z,6.57
2022-10-21T22:23:12.192Z,7.68
2022-10-21T22:28:15.009Z,6.80
2022-10-21T22:33:17.501Z,7.45
2022-10-21T22:38:20.300Z,9.20
2022-10-21T22:43:23.209Z,6.38
2022-10-21T22:48:25.858Z,6.82
2022-10-21T22:53:29.065Z,7.43
2022-10-21T22:58:31.891Z,5.75
2022-10-21T23:03:34.690Z,7.70
2022-10-21T23:08:37.363Z,5.53
2022-10-21T23:13:51.087Z,7.25
2022-10-21T23:19:21.126Z,7.60
2022-10-21T23:24:23.675Z,6.45
2022-10-21T23:29:26.333Z,6.55
2022-10-21T23:34:28.867Z,5.47
2022-10-21T23:39:31.462Z,6.28
2022-10-21T23:44:33.994Z,6.75
2022-10-21T23:49:36.567Z,5.50
2022-10-21T23:54:39.105Z,4.45
2022-10-21T23:59:42.992Z,3.90
